Terminal Aerodrome Forecast
Issued by NWS

Home | Current Version | Previous Version | Graphics & Text | Print | Product List | Glossary On
Versions: 1 2 3 4 5 6 7 8 9 10 11 12 13 14 15 16 17 18 19 20 21 22 23 24 25 26
667
FTUS43 KBIS 162321
TAFDIK
TAF
KDIK 162321Z 1700/1724 26009KT P6SM BKN150
     FM170900 30007KT P6SM BKN040 OVC070
     FM171300 31013KT P6SM OVC025
     FM171700 29014G22KT P6SM SCT120=

USA.gov is the U.S. government's official web portal to all federal, state and local government web resources and services.